sensor_id;sensor_type;location;lat;lon;timestamp;P1;durP1;ratioP1;P2;durP2;ratioP2
77246;SDS011;66279;42.820;23.374;2023-05-10T00:01:30;1.17;;;0.98;;
77246;SDS011;66279;42.820;23.374;2023-05-10T00:03:55;1.63;;;1.38;;
77246;SDS011;66279;42.820;23.374;2023-05-10T00:06:21;2.05;;;1.42;;
77246;SDS011;66279;42.820;23.374;2023-05-10T00:08:47;2.03;;;1.20;;
77246;SDS011;66279;42.820;23.374;2023-05-10T00:11:12;1.25;;;1.02;;
77246;SDS011;66279;42.820;23.374;2023-05-10T00:13:38;1.60;;;1.35;;
77246;SDS011;66279;42.820;23.374;2023-05-10T00:16:04;1.92;;;1.20;;
77246;SDS011;66279;42.820;23.374;2023-05-10T00:18:29;1.70;;;1.33;;
77246;SDS011;66279;42.820;23.374;2023-05-10T00:20:55;1.27;;;1.15;;
77246;SDS011;66279;42.820;23.374;2023-05-10T00:23:20;1.90;;;1.60;;
77246;SDS011;66279;42.820;23.374;2023-05-10T00:25:46;1.73;;;1.40;;
77246;SDS011;66279;42.820;23.374;2023-05-10T00:28:11;1.50;;;1.27;;
77246;SDS011;66279;42.820;23.374;2023-05-10T00:30:37;1.42;;;1.30;;
77246;SDS011;66279;42.820;23.374;2023-05-10T00:33:02;2.03;;;1.40;;
77246;SDS011;66279;42.820;23.374;2023-05-10T00:35:28;1.60;;;1.40;;
77246;SDS011;66279;42.820;23.374;2023-05-10T00:37:53;1.80;;;1.55;;
77246;SDS011;66279;42.820;23.374;2023-05-10T00:40:19;1.50;;;1.35;;
77246;SDS011;66279;42.820;23.374;2023-05-10T00:42:45;1.95;;;1.70;;
77246;SDS011;66279;42.820;23.374;2023-05-10T00:45:11;1.40;;;1.30;;
77246;SDS011;66279;42.820;23.374;2023-05-10T00:47:36;2.42;;;1.60;;
77246;SDS011;66279;42.820;23.374;2023-05-10T00:50:02;1.67;;;1.33;;
77246;SDS011;66279;42.820;23.374;2023-05-10T00:52:29;1.42;;;1.33;;
77246;SDS011;66279;42.820;23.374;2023-05-10T00:54:55;1.67;;;1.58;;
77246;SDS011;66279;42.820;23.374;2023-05-10T00:57:21;2.72;;;2.00;;
77246;SDS011;66279;42.820;23.374;2023-05-10T00:59:47;1.63;;;1.52;;
77246;SDS011;66279;42.820;23.374;2023-05-10T01:02:13;2.20;;;1.98;;
77246;SDS011;66279;42.820;23.374;2023-05-10T01:04:39;3.00;;;1.80;;
77246;SDS011;66279;42.820;23.374;2023-05-10T01:07:05;2.83;;;2.20;;
77246;SDS011;66279;42.820;23.374;2023-05-10T01:09:31;2.42;;;1.92;;
77246;SDS011;66279;42.820;23.374;2023-05-10T01:11:57;2.22;;;1.88;;
77246;SDS011;66279;42.820;23.374;2023-05-10T01:14:24;2.00;;;1.55;;
77246;SDS011;66279;42.820;23.374;2023-05-10T01:16:51;1.85;;;1.65;;
77246;SDS011;66279;42.820;23.374;2023-05-10T01:19:28;1.90;;;1.75;;
77246;SDS011;66279;42.820;23.374;2023-05-10T01:22:22;2.13;;;1.65;;
77246;SDS011;66279;42.820;23.374;2023-05-10T01:33:23;1.60;;;1.45;;
77246;SDS011;66279;42.820;23.374;2023-05-10T01:36:05;2.10;;;1.48;;
77246;SDS011;66279;42.820;23.374;2023-05-10T01:44:16;1.80;;;1.42;;
77246;SDS011;66279;42.820;23.374;2023-05-10T01:46:52;1.60;;;1.38;;
77246;SDS011;66279;42.820;23.374;2023-05-10T01:49:25;1.95;;;1.63;;
77246;SDS011;66279;42.820;23.374;2023-05-10T01:51:53;1.85;;;1.60;;
77246;SDS011;66279;42.820;23.374;2023-05-10T01:54:21;1.55;;;1.45;;
77246;SDS011;66279;42.820;23.374;2023-05-10T01:56:50;2.15;;;1.40;;
77246;SDS011;66279;42.820;23.374;2023-05-10T01:59:20;1.83;;;1.52;;
77246;SDS011;66279;42.820;23.374;2023-05-10T02:01:47;1.73;;;1.40;;
77246;SDS011;66279;42.820;23.374;2023-05-10T02:04:15;1.90;;;1.58;;
77246;SDS011;66279;42.820;23.374;2023-05-10T02:06:42;1.95;;;1.38;;
77246;SDS011;66279;42.820;23.374;2023-05-10T02:09:10;2.40;;;2.10;;
77246;SDS011;66279;42.820;23.374;2023-05-10T02:11:38;1.83;;;1.48;;
77246;SDS011;66279;42.820;23.374;2023-05-10T02:14:07;1.80;;;1.40;;
77246;SDS011;66279;42.820;23.374;2023-05-10T02:19:01;1.90;;;1.70;;
77246;SDS011;66279;42.820;23.374;2023-05-10T02:21:28;2.05;;;1.85;;
77246;SDS011;66279;42.820;23.374;2023-05-10T02:23:54;2.30;;;2.00;;
77246;SDS011;66279;42.820;23.374;2023-05-10T02:26:20;2.10;;;1.90;;
77246;SDS011;66279;42.820;23.374;2023-05-10T02:28:48;3.92;;;3.03;;
77246;SDS011;66279;42.820;23.374;2023-05-10T02:31:15;3.42;;;2.90;;
77246;SDS011;66279;42.820;23.374;2023-05-10T02:33:42;3.53;;;3.22;;
77246;SDS011;66279;42.820;23.374;2023-05-10T02:36:09;2.47;;;2.28;;
77246;SDS011;66279;42.820;23.374;2023-05-10T02:38:36;3.88;;;2.35;;
77246;SDS011;66279;42.820;23.374;2023-05-10T02:41:02;3.08;;;2.78;;
77246;SDS011;66279;42.820;23.374;2023-05-10T02:43:29;3.20;;;2.78;;
77246;SDS011;66279;42.820;23.374;2023-05-10T02:45:58;2.75;;;2.50;;
77246;SDS011;66279;42.820;23.374;2023-05-10T02:48:24;2.95;;;2.72;;
77246;SDS011;66279;42.820;23.374;2023-05-10T02:50:50;2.38;;;2.17;;
77246;SDS011;66279;42.820;23.374;2023-05-10T02:53:22;2.40;;;1.75;;
77246;SDS011;66279;42.820;23.374;2023-05-10T02:55:50;2.88;;;2.40;;
77246;SDS011;66279;42.820;23.374;2023-05-10T02:58:18;3.10;;;2.30;;
77246;SDS011;66279;42.820;23.374;2023-05-10T03:00:47;3.17;;;2.88;;
77246;SDS011;66279;42.820;23.374;2023-05-10T03:03:12;2.55;;;2.20;;
77246;SDS011;66279;42.820;23.374;2023-05-10T03:05:38;3.17;;;2.60;;
77246;SDS011;66279;42.820;23.374;2023-05-10T03:08:04;2.78;;;2.47;;
77246;SDS011;66279;42.820;23.374;2023-05-10T03:10:31;3.08;;;2.35;;
77246;SDS011;66279;42.820;23.374;2023-05-10T03:18:04;2.40;;;2.13;;
77246;SDS011;66279;42.820;23.374;2023-05-10T03:20:38;2.45;;;2.22;;
77246;SDS011;66279;42.820;23.374;2023-05-10T03:23:23;2.40;;;2.20;;
77246;SDS011;66279;42.820;23.374;2023-05-10T03:25:52;3.58;;;2.00;;
77246;SDS011;66279;42.820;23.374;2023-05-10T03:28:18;4.97;;;3.60;;
77246;SDS011;66279;42.820;23.374;2023-05-10T03:30:45;4.13;;;3.58;;
77246;SDS011;66279;42.820;23.374;2023-05-10T03:33:11;3.88;;;3.05;;
77246;SDS011;66279;42.820;23.374;2023-05-10T03:35:38;3.92;;;2.50;;
77246;SDS011;66279;42.820;23.374;2023-05-10T03:38:04;3.28;;;1.95;;
77246;SDS011;66279;42.820;23.374;2023-05-10T03:40:29;2.35;;;2.00;;
77246;SDS011;66279;42.820;23.374;2023-05-10T03:42:57;2.40;;;1.83;;
77246;SDS011;66279;42.820;23.374;2023-05-10T03:45:25;2.72;;;1.98;;
77246;SDS011;66279;42.820;23.374;2023-05-10T03:47:51;1.80;;;1.50;;
77246;SDS011;66279;42.820;23.374;2023-05-10T03:50:16;2.75;;;1.67;;
77246;SDS011;66279;42.820;23.374;2023-05-10T03:52:43;2.47;;;2.00;;
77246;SDS011;66279;42.820;23.374;2023-05-10T03:55:09;1.60;;;1.50;;
77246;SDS011;66279;42.820;23.374;2023-05-10T03:57:35;2.00;;;1.65;;
77246;SDS011;66279;42.820;23.374;2023-05-10T04:00:00;2.92;;;2.10;;
77246;SDS011;66279;42.820;23.374;2023-05-10T04:02:26;2.40;;;1.98;;
77246;SDS011;66279;42.820;23.374;2023-05-10T04:04:51;2.72;;;1.80;;
77246;SDS011;66279;42.820;23.374;2023-05-10T04:07:17;3.65;;;2.25;;
77246;SDS011;66279;42.820;23.374;2023-05-10T04:09:43;4.38;;;2.60;;
77246;SDS011;66279;42.820;23.374;2023-05-10T04:12:08;2.38;;;2.10;;
77246;SDS011;66279;42.820;23.374;2023-05-10T04:14:34;3.72;;;2.47;;
77246;SDS011;66279;42.820;23.374;2023-05-10T04:17:00;3.15;;;2.42;;
77246;SDS011;66279;42.820;23.374;2023-05-10T04:19:29;3.40;;;2.20;;
77246;SDS011;66279;42.820;23.374;2023-05-10T04:21:55;2.45;;;1.90;;
77246;SDS011;66279;42.820;23.374;2023-05-10T04:24:20;1.95;;;1.50;;
77246;SDS011;66279;42.820;23.374;2023-05-10T04:26:46;2.00;;;1.80;;
77246;SDS011;66279;42.820;23.374;2023-05-10T04:29:12;2.88;;;2.08;;
77246;SDS011;66279;42.820;23.374;2023-05-10T04:31:37;2.75;;;1.98;;
77246;SDS011;66279;42.820;23.374;2023-05-10T04:34:03;2.20;;;1.75;;
77246;SDS011;66279;42.820;23.374;2023-05-10T04:36:29;2.38;;;1.77;;
77246;SDS011;66279;42.820;23.374;2023-05-10T04:38:55;3.50;;;1.70;;
77246;SDS011;66279;42.820;23.374;2023-05-10T04:41:20;1.73;;;1.55;;
77246;SDS011;66279;42.820;23.374;2023-05-10T04:43:46;2.90;;;1.73;;
77246;SDS011;66279;42.820;23.374;2023-05-10T04:46:14;2.13;;;1.40;;
77246;SDS011;66279;42.820;23.374;2023-05-10T04:48:39;1.38;;;1.15;;
77246;SDS011;66279;42.820;23.374;2023-05-10T04:51:05;2.50;;;1.33;;
77246;SDS011;66279;42.820;23.374;2023-05-10T04:53:31;3.40;;;1.80;;
77246;SDS011;66279;42.820;23.374;2023-05-10T04:55:57;1.85;;;1.40;;
77246;SDS011;66279;42.820;23.374;2023-05-10T04:58:22;1.45;;;1.02;;
77246;SDS011;66279;42.820;23.374;2023-05-10T05:00:48;4.53;;;1.55;;
77246;SDS011;66279;42.820;23.374;2023-05-10T05:03:14;1.70;;;1.40;;
77246;SDS011;66279;42.820;23.374;2023-05-10T05:05:39;1.88;;;1.45;;
77246;SDS011;66279;42.820;23.374;2023-05-10T05:08:05;3.47;;;1.65;;
77246;SDS011;66279;42.820;23.374;2023-05-10T05:10:30;1.90;;;1.55;;
77246;SDS011;66279;42.820;23.374;2023-05-10T05:12:56;3.28;;;1.48;;
77246;SDS011;66279;42.820;23.374;2023-05-10T05:15:21;1.45;;;1.15;;
77246;SDS011;66279;42.820;23.374;2023-05-10T05:17:47;2.08;;;1.45;;
77246;SDS011;66279;42.820;23.374;2023-05-10T05:20:13;1.83;;;1.35;;
77246;SDS011;66279;42.820;23.374;2023-05-10T05:22:38;1.83;;;1.30;;
77246;SDS011;66279;42.820;23.374;2023-05-10T05:25:04;1.83;;;1.35;;
77246;SDS011;66279;42.820;23.374;2023-05-10T05:27:30;1.60;;;1.30;;
77246;SDS011;66279;42.820;23.374;2023-05-10T05:29:56;1.70;;;1.10;;
77246;SDS011;66279;42.820;23.374;2023-05-10T05:32:23;2.95;;;1.20;;
77246;SDS011;66279;42.820;23.374;2023-05-10T05:34:49;2.13;;;1.25;;
77246;SDS011;66279;42.820;23.374;2023-05-10T05:37:15;1.77;;;1.17;;
77246;SDS011;66279;42.820;23.374;2023-05-10T05:39:42;1.63;;;1.50;;
77246;SDS011;66279;42.820;23.374;2023-05-10T05:42:08;1.85;;;1.33;;
77246;SDS011;66279;42.820;23.374;2023-05-10T05:44:34;3.30;;;1.15;;
77246;SDS011;66279;42.820;23.374;2023-05-10T05:47:00;1.63;;;1.25;;
77246;SDS011;66279;42.820;23.374;2023-05-10T05:49:26;2.65;;;1.20;;
77246;SDS011;66279;42.820;23.374;2023-05-10T05:51:51;2.65;;;1.60;;
77246;SDS011;66279;42.820;23.374;2023-05-10T05:54:17;1.42;;;1.17;;
77246;SDS011;66279;42.820;23.374;2023-05-10T05:56:42;1.50;;;1.00;;
77246;SDS011;66279;42.820;23.374;2023-05-10T05:59:09;1.73;;;1.27;;
77246;SDS011;66279;42.820;23.374;2023-05-10T06:01:35;1.40;;;1.20;;
77246;SDS011;66279;42.820;23.374;2023-05-10T06:04:01;2.42;;;1.58;;
77246;SDS011;66279;42.820;23.374;2023-05-10T06:06:26;1.83;;;1.20;;
77246;SDS011;66279;42.820;23.374;2023-05-10T06:08:52;2.15;;;1.50;;
77246;SDS011;66279;42.820;23.374;2023-05-10T06:11:18;2.38;;;1.20;;
77246;SDS011;66279;42.820;23.374;2023-05-10T06:13:43;2.72;;;1.50;;
77246;SDS011;66279;42.820;23.374;2023-05-10T06:16:09;3.10;;;1.30;;
77246;SDS011;66279;42.820;23.374;2023-05-10T06:18:35;1.98;;;1.50;;
77246;SDS011;66279;42.820;23.374;2023-05-10T06:21:01;2.75;;;1.20;;
77246;SDS011;66279;42.820;23.374;2023-05-10T06:23:26;1.40;;;1.15;;
77246;SDS011;66279;42.820;23.374;2023-05-10T06:25:52;1.52;;;1.17;;
77246;SDS011;66279;42.820;23.374;2023-05-10T06:28:18;1.67;;;1.17;;
77246;SDS011;66279;42.820;23.374;2023-05-10T06:30:43;1.27;;;0.88;;
77246;SDS011;66279;42.820;23.374;2023-05-10T06:33:11;2.03;;;1.25;;
77246;SDS011;66279;42.820;23.374;2023-05-10T06:35:37;1.60;;;1.20;;
77246;SDS011;66279;42.820;23.374;2023-05-10T06:38:03;3.53;;;1.02;;
77246;SDS011;66279;42.820;23.374;2023-05-10T06:40:29;2.42;;;1.10;;
77246;SDS011;66279;42.820;23.374;2023-05-10T06:42:55;1.10;;;1.00;;
77246;SDS011;66279;42.820;23.374;2023-05-10T06:45:20;2.05;;;1.40;;
77246;SDS011;66279;42.820;23.374;2023-05-10T06:47:46;2.05;;;1.30;;
77246;SDS011;66279;42.820;23.374;2023-05-10T06:50:11;1.38;;;1.25;;
77246;SDS011;66279;42.820;23.374;2023-05-10T06:52:37;2.67;;;1.00;;
77246;SDS011;66279;42.820;23.374;2023-05-10T06:55:03;2.13;;;1.33;;
77246;SDS011;66279;42.820;23.374;2023-05-10T06:57:30;1.80;;;1.35;;
77246;SDS011;66279;42.820;23.374;2023-05-10T06:59:55;1.52;;;1.17;;
77246;SDS011;66279;42.820;23.374;2023-05-10T07:02:21;1.35;;;1.13;;
77246;SDS011;66279;42.820;23.374;2023-05-10T07:04:47;2.67;;;1.25;;
77246;SDS011;66279;42.820;23.374;2023-05-10T07:07:13;1.67;;;1.20;;
77246;SDS011;66279;42.820;23.374;2023-05-10T07:09:39;1.88;;;1.60;;
77246;SDS011;66279;42.820;23.374;2023-05-10T07:12:05;1.42;;;1.20;;
77246;SDS011;66279;42.820;23.374;2023-05-10T07:14:31;1.90;;;1.60;;
77246;SDS011;66279;42.820;23.374;2023-05-10T07:16:56;1.95;;;1.45;;
77246;SDS011;66279;42.820;23.374;2023-05-10T07:19:22;2.50;;;1.50;;
77246;SDS011;66279;42.820;23.374;2023-05-10T07:21:47;1.65;;;1.27;;
77246;SDS011;66279;42.820;23.374;2023-05-10T07:24:13;1.50;;;1.25;;
77246;SDS011;66279;42.820;23.374;2023-05-10T07:26:38;1.95;;;1.75;;
77246;SDS011;66279;42.820;23.374;2023-05-10T07:29:04;2.13;;;1.55;;
77246;SDS011;66279;42.820;23.374;2023-05-10T07:31:30;1.65;;;1.45;;
77246;SDS011;66279;42.820;23.374;2023-05-10T07:33:55;2.13;;;1.65;;
77246;SDS011;66279;42.820;23.374;2023-05-10T07:36:21;2.80;;;1.98;;
77246;SDS011;66279;42.820;23.374;2023-05-10T07:38:46;1.95;;;1.50;;
77246;SDS011;66279;42.820;23.374;2023-05-10T07:41:12;2.78;;;2.00;;
77246;SDS011;66279;42.820;23.374;2023-05-10T07:43:38;1.75;;;1.45;;
77246;SDS011;66279;42.820;23.374;2023-05-10T07:46:03;1.45;;;1.20;;
77246;SDS011;66279;42.820;23.374;2023-05-10T07:48:30;2.25;;;1.80;;
77246;SDS011;66279;42.820;23.374;2023-05-10T07:50:56;2.45;;;1.30;;
77246;SDS011;66279;42.820;23.374;2023-05-10T07:53:21;1.80;;;1.45;;
77246;SDS011;66279;42.820;23.374;2023-05-10T07:55:50;2.00;;;1.77;;
77246;SDS011;66279;42.820;23.374;2023-05-10T07:58:19;3.15;;;1.77;;
77246;SDS011;66279;42.820;23.374;2023-05-10T08:00:45;2.15;;;1.75;;
77246;SDS011;66279;42.820;23.374;2023-05-10T08:03:10;3.13;;;2.25;;
77246;SDS011;66279;42.820;23.374;2023-05-10T08:05:36;2.88;;;1.95;;
77246;SDS011;66279;42.820;23.374;2023-05-10T08:08:01;1.60;;;1.50;;
77246;SDS011;66279;42.820;23.374;2023-05-10T08:10:27;3.60;;;2.85;;
77246;SDS011;66279;42.820;23.374;2023-05-10T08:12:52;4.75;;;3.25;;
77246;SDS011;66279;42.820;23.374;2023-05-10T08:15:18;5.65;;;4.55;;
77246;SDS011;66279;42.820;23.374;2023-05-10T08:17:43;4.10;;;3.10;;
77246;SDS011;66279;42.820;23.374;2023-05-10T08:20:09;3.80;;;3.22;;
77246;SDS011;66279;42.820;23.374;2023-05-10T08:22:34;7.75;;;4.65;;
77246;SDS011;66279;42.820;23.374;2023-05-10T08:25:01;5.43;;;3.90;;
77246;SDS011;66279;42.820;23.374;2023-05-10T08:27:26;8.35;;;5.68;;
77246;SDS011;66279;42.820;23.374;2023-05-10T08:29:52;5.15;;;4.03;;
77246;SDS011;66279;42.820;23.374;2023-05-10T08:32:17;2.25;;;2.03;;
77246;SDS011;66279;42.820;23.374;2023-05-10T08:34:43;4.22;;;3.65;;
77246;SDS011;66279;42.820;23.374;2023-05-10T08:37:08;3.75;;;2.72;;
77246;SDS011;66279;42.820;23.374;2023-05-10T08:39:35;2.42;;;2.15;;
77246;SDS011;66279;42.820;23.374;2023-05-10T08:42:01;2.05;;;1.85;;
77246;SDS011;66279;42.820;23.374;2023-05-10T08:44:29;2.42;;;1.58;;
77246;SDS011;66279;42.820;23.374;2023-05-10T08:46:57;4.22;;;1.83;;
77246;SDS011;66279;42.820;23.374;2023-05-10T08:49:27;2.78;;;2.10;;
77246;SDS011;66279;42.820;23.374;2023-05-10T08:54:22;3.22;;;1.88;;
77246;SDS011;66279;42.820;23.374;2023-05-10T08:56:48;3.03;;;1.73;;
77246;SDS011;66279;42.820;23.374;2023-05-10T08:59:14;1.83;;;1.40;;
77246;SDS011;66279;42.820;23.374;2023-05-10T09:01:40;3.55;;;1.80;;
77246;SDS011;66279;42.820;23.374;2023-05-10T09:04:07;2.65;;;1.90;;
77246;SDS011;66279;42.820;23.374;2023-05-10T09:06:33;3.45;;;2.47;;
77246;SDS011;66279;42.820;23.374;2023-05-10T09:08:59;2.38;;;1.98;;
77246;SDS011;66279;42.820;23.374;2023-05-10T09:11:25;3.72;;;1.92;;
77246;SDS011;66279;42.820;23.374;2023-05-10T09:13:50;2.53;;;2.15;;
77246;SDS011;66279;42.820;23.374;2023-05-10T09:16:17;2.15;;;1.75;;
77246;SDS011;66279;42.820;23.374;2023-05-10T09:18:43;4.95;;;1.92;;
77246;SDS011;66279;42.820;23.374;2023-05-10T09:21:08;2.15;;;1.95;;
77246;SDS011;66279;42.820;23.374;2023-05-10T09:23:35;1.60;;;1.50;;
77246;SDS011;66279;42.820;23.374;2023-05-10T09:26:06;2.90;;;1.80;;
77246;SDS011;66279;42.820;23.374;2023-05-10T09:28:54;6.53;;;1.75;;
77246;SDS011;66279;42.820;23.374;2023-05-10T09:31:19;2.33;;;1.85;;
77246;SDS011;66279;42.820;23.374;2023-05-10T09:33:45;2.40;;;1.80;;
77246;SDS011;66279;42.820;23.374;2023-05-10T09:36:12;5.10;;;2.17;;
77246;SDS011;66279;42.820;23.374;2023-05-10T09:38:48;2.53;;;1.88;;
77246;SDS011;66279;42.820;23.374;2023-05-10T09:41:21;1.75;;;1.40;;
77246;SDS011;66279;42.820;23.374;2023-05-10T09:43:48;16.88;;;12.32;;
77246;SDS011;66279;42.820;23.374;2023-05-10T09:46:17;4.50;;;3.55;;
77246;SDS011;66279;42.820;23.374;2023-05-10T09:48:46;5.50;;;5.00;;
77246;SDS011;66279;42.820;23.374;2023-05-10T09:51:22;2.85;;;1.92;;
77246;SDS011;66279;42.820;23.374;2023-05-10T09:53:50;2.60;;;2.22;;
77246;SDS011;66279;42.820;23.374;2023-05-10T09:56:37;2.85;;;1.70;;
77246;SDS011;66279;42.820;23.374;2023-05-10T09:59:05;6.43;;;2.42;;
77246;SDS011;66279;42.820;23.374;2023-05-10T10:01:33;3.88;;;2.92;;
77246;SDS011;66279;42.820;23.374;2023-05-10T10:03:59;5.05;;;3.17;;
77246;SDS011;66279;42.820;23.374;2023-05-10T10:06:29;3.63;;;2.47;;
77246;SDS011;66279;42.820;23.374;2023-05-10T10:08:54;8.07;;;5.22;;
77246;SDS011;66279;42.820;23.374;2023-05-10T10:11:21;15.88;;;9.52;;
77246;SDS011;66279;42.820;23.374;2023-05-10T10:13:51;19.13;;;10.98;;
77246;SDS011;66279;42.820;23.374;2023-05-10T10:16:17;15.02;;;8.05;;
77246;SDS011;66279;42.820;23.374;2023-05-10T10:18:42;14.15;;;8.00;;
77246;SDS011;66279;42.820;23.374;2023-05-10T10:21:08;16.63;;;10.38;;
77246;SDS011;66279;42.820;23.374;2023-05-10T10:23:34;4.10;;;2.97;;
77246;SDS011;66279;42.820;23.374;2023-05-10T10:26:01;4.45;;;3.10;;
77246;SDS011;66279;42.820;23.374;2023-05-10T10:28:46;16.77;;;7.50;;
77246;SDS011;66279;42.820;23.374;2023-05-10T10:31:24;24.88;;;10.60;;
77246;SDS011;66279;42.820;23.374;2023-05-10T10:34:05;6.85;;;5.20;;
77246;SDS011;66279;42.820;23.374;2023-05-10T10:36:40;7.18;;;3.78;;
77246;SDS011;66279;42.820;23.374;2023-05-10T10:39:10;19.27;;;9.38;;
77246;SDS011;66279;42.820;23.374;2023-05-10T10:41:36;10.70;;;5.80;;
77246;SDS011;66279;42.820;23.374;2023-05-10T10:47:03;19.17;;;10.18;;
77246;SDS011;66279;42.820;23.374;2023-05-10T10:49:31;7.97;;;4.38;;
77246;SDS011;66279;42.820;23.374;2023-05-10T10:55:05;10.70;;;8.02;;
77246;SDS011;66279;42.820;23.374;2023-05-10T11:03:06;4.57;;;2.92;;
77246;SDS011;66279;42.820;23.374;2023-05-10T11:05:39;11.10;;;5.38;;
77246;SDS011;66279;42.820;23.374;2023-05-10T11:08:21;4.95;;;2.38;;
77246;SDS011;66279;42.820;23.374;2023-05-10T11:13:42;13.55;;;5.93;;
77246;SDS011;66279;42.820;23.374;2023-05-10T11:16:13;5.47;;;3.15;;
77246;SDS011;66279;42.820;23.374;2023-05-10T11:18:53;4.50;;;2.38;;
77246;SDS011;66279;42.820;23.374;2023-05-10T11:21:22;15.40;;;7.75;;
77246;SDS011;66279;42.820;23.374;2023-05-10T11:23:49;6.50;;;3.85;;
77246;SDS011;66279;42.820;23.374;2023-05-10T11:26:16;4.55;;;2.90;;
77246;SDS011;66279;42.820;23.374;2023-05-10T11:28:43;5.90;;;3.00;;
77246;SDS011;66279;42.820;23.374;2023-05-10T11:31:10;3.25;;;2.60;;
77246;SDS011;66279;42.820;23.374;2023-05-10T11:33:48;10.98;;;4.78;;
77246;SDS011;66279;42.820;23.374;2023-05-10T11:36:15;7.40;;;3.40;;
77246;SDS011;66279;42.820;23.374;2023-05-10T11:38:43;1.88;;;1.65;;
77246;SDS011;66279;42.820;23.374;2023-05-10T11:41:09;6.82;;;3.58;;
77246;SDS011;66279;42.820;23.374;2023-05-10T11:43:36;4.90;;;2.65;;
77246;SDS011;66279;42.820;23.374;2023-05-10T11:46:04;4.57;;;2.80;;
77246;SDS011;66279;42.820;23.374;2023-05-10T11:48:31;6.97;;;3.92;;
77246;SDS011;66279;42.820;23.374;2023-05-10T11:50:57;7.80;;;4.20;;
77246;SDS011;66279;42.820;23.374;2023-05-10T11:53:23;5.93;;;2.72;;
77246;SDS011;66279;42.820;23.374;2023-05-10T11:55:51;7.70;;;3.80;;
77246;SDS011;66279;42.820;23.374;2023-05-10T11:58:17;5.90;;;3.25;;
77246;SDS011;66279;42.820;23.374;2023-05-10T12:00:43;5.05;;;2.53;;
77246;SDS011;66279;42.820;23.374;2023-05-10T12:03:10;7.75;;;3.00;;
77246;SDS011;66279;42.820;23.374;2023-05-10T12:05:36;5.88;;;2.83;;
77246;SDS011;66279;42.820;23.374;2023-05-10T12:08:15;3.75;;;2.92;;
77246;SDS011;66279;42.820;23.374;2023-05-10T12:10:44;4.85;;;1.98;;
77246;SDS011;66279;42.820;23.374;2023-05-10T12:13:11;7.25;;;3.17;;
77246;SDS011;66279;42.820;23.374;2023-05-10T12:15:38;4.10;;;2.15;;
77246;SDS011;66279;42.820;23.374;2023-05-10T12:18:03;3.80;;;2.53;;
77246;SDS011;66279;42.820;23.374;2023-05-10T12:20:30;8.73;;;4.43;;
77246;SDS011;66279;42.820;23.374;2023-05-10T12:22:57;5.72;;;3.72;;
77246;SDS011;66279;42.820;23.374;2023-05-10T12:25:30;7.32;;;3.35;;
77246;SDS011;66279;42.820;23.374;2023-05-10T12:28:00;2.70;;;2.40;;
77246;SDS011;66279;42.820;23.374;2023-05-10T12:30:29;5.70;;;2.20;;
77246;SDS011;66279;42.820;23.374;2023-05-10T12:33:02;3.72;;;2.13;;
77246;SDS011;66279;42.820;23.374;2023-05-10T12:35:48;3.40;;;2.00;;
77246;SDS011;66279;42.820;23.374;2023-05-10T12:41:10;2.90;;;1.52;;
77246;SDS011;66279;42.820;23.374;2023-05-10T12:43:37;4.75;;;2.13;;
77246;SDS011;66279;42.820;23.374;2023-05-10T12:46:13;2.88;;;1.90;;
77246;SDS011;66279;42.820;23.374;2023-05-10T12:48:40;3.00;;;2.20;;
77246;SDS011;66279;42.820;23.374;2023-05-10T12:51:08;3.50;;;2.28;;
77246;SDS011;66279;42.820;23.374;2023-05-10T12:53:46;2.10;;;1.90;;
77246;SDS011;66279;42.820;23.374;2023-05-10T12:56:13;4.22;;;2.65;;
77246;SDS011;66279;42.820;23.374;2023-05-10T12:58:38;3.60;;;2.17;;
77246;SDS011;66279;42.820;23.374;2023-05-10T13:01:04;2.50;;;2.13;;
77246;SDS011;66279;42.820;23.374;2023-05-10T13:03:30;4.80;;;1.90;;
77246;SDS011;66279;42.820;23.374;2023-05-10T13:05:56;2.08;;;1.58;;
77246;SDS011;66279;42.820;23.374;2023-05-10T13:08:21;4.45;;;2.80;;
77246;SDS011;66279;42.820;23.374;2023-05-10T13:10:47;5.97;;;3.60;;
77246;SDS011;66279;42.820;23.374;2023-05-10T13:13:12;3.70;;;2.53;;
77246;SDS011;66279;42.820;23.374;2023-05-10T13:15:38;3.88;;;2.90;;
77246;SDS011;66279;42.820;23.374;2023-05-10T13:18:03;4.78;;;3.35;;
77246;SDS011;66279;42.820;23.374;2023-05-10T13:20:30;3.83;;;2.42;;
77246;SDS011;66279;42.820;23.374;2023-05-10T13:22:55;3.35;;;2.22;;
77246;SDS011;66279;42.820;23.374;2023-05-10T13:25:21;2.75;;;2.45;;
77246;SDS011;66279;42.820;23.374;2023-05-10T13:27:46;7.13;;;4.03;;
77246;SDS011;66279;42.820;23.374;2023-05-10T13:30:12;3.88;;;2.85;;
77246;SDS011;66279;42.820;23.374;2023-05-10T13:32:37;4.20;;;3.20;;
77246;SDS011;66279;42.820;23.374;2023-05-10T13:35:03;5.35;;;3.72;;
77246;SDS011;66279;42.820;23.374;2023-05-10T13:37:30;4.63;;;3.22;;
77246;SDS011;66279;42.820;23.374;2023-05-10T13:39:56;5.60;;;4.20;;
77246;SDS011;66279;42.820;23.374;2023-05-10T13:42:22;5.20;;;3.47;;
77246;SDS011;66279;42.820;23.374;2023-05-10T13:44:48;6.40;;;3.33;;
77246;SDS011;66279;42.820;23.374;2023-05-10T13:47:14;6.03;;;3.38;;
77246;SDS011;66279;42.820;23.374;2023-05-10T13:49:40;6.10;;;4.65;;
77246;SDS011;66279;42.820;23.374;2023-05-10T13:52:05;10.43;;;6.53;;
77246;SDS011;66279;42.820;23.374;2023-05-10T13:54:32;11.57;;;6.15;;
77246;SDS011;66279;42.820;23.374;2023-05-10T13:56:59;8.35;;;5.05;;
77246;SDS011;66279;42.820;23.374;2023-05-10T13:59:25;26.25;;;13.85;;
77246;SDS011;66279;42.820;23.374;2023-05-10T14:01:50;34.28;;;15.57;;
77246;SDS011;66279;42.820;23.374;2023-05-10T14:04:16;17.23;;;9.18;;
77246;SDS011;66279;42.820;23.374;2023-05-10T14:06:41;9.18;;;4.72;;
77246;SDS011;66279;42.820;23.374;2023-05-10T14:09:07;5.45;;;3.55;;
77246;SDS011;66279;42.820;23.374;2023-05-10T14:11:33;25.52;;;10.80;;
77246;SDS011;66279;42.820;23.374;2023-05-10T14:13:59;39.80;;;14.80;;
77246;SDS011;66279;42.820;23.374;2023-05-10T14:16:24;23.85;;;9.98;;
77246;SDS011;66279;42.820;23.374;2023-05-10T14:18:51;19.00;;;8.65;;
77246;SDS011;66279;42.820;23.374;2023-05-10T14:21:16;25.67;;;11.38;;
77246;SDS011;66279;42.820;23.374;2023-05-10T14:23:42;10.65;;;4.63;;
77246;SDS011;66279;42.820;23.374;2023-05-10T14:26:07;4.07;;;2.90;;
77246;SDS011;66279;42.820;23.374;2023-05-10T14:28:33;2.80;;;2.50;;
77246;SDS011;66279;42.820;23.374;2023-05-10T14:30:59;4.32;;;3.33;;
77246;SDS011;66279;42.820;23.374;2023-05-10T14:33:24;10.45;;;4.40;;
77246;SDS011;66279;42.820;23.374;2023-05-10T14:35:50;36.10;;;15.18;;
77246;SDS011;66279;42.820;23.374;2023-05-10T14:38:16;14.25;;;7.20;;
77246;SDS011;66279;42.820;23.374;2023-05-10T14:40:41;25.83;;;12.70;;
77246;SDS011;66279;42.820;23.374;2023-05-10T14:43:08;24.27;;;8.82;;
77246;SDS011;66279;42.820;23.374;2023-05-10T14:45:33;21.50;;;10.18;;
77246;SDS011;66279;42.820;23.374;2023-05-10T14:47:59;30.77;;;16.17;;
77246;SDS011;66279;42.820;23.374;2023-05-10T14:50:25;5.40;;;3.78;;
77246;SDS011;66279;42.820;23.374;2023-05-10T14:56:03;5.60;;;3.58;;
77246;SDS011;66279;42.820;23.374;2023-05-10T14:58:28;3.88;;;2.85;;
77246;SDS011;66279;42.820;23.374;2023-05-10T15:00:55;5.47;;;3.35;;
77246;SDS011;66279;42.820;23.374;2023-05-10T15:03:21;4.50;;;3.70;;
77246;SDS011;66279;42.820;23.374;2023-05-10T15:05:47;10.30;;;6.38;;
77246;SDS011;66279;42.820;23.374;2023-05-10T15:08:12;11.57;;;7.40;;
77246;SDS011;66279;42.820;23.374;2023-05-10T15:10:38;11.38;;;6.93;;
77246;SDS011;66279;42.820;23.374;2023-05-10T15:13:04;21.48;;;12.60;;
77246;SDS011;66279;42.820;23.374;2023-05-10T15:15:30;6.97;;;5.40;;
77246;SDS011;66279;42.820;23.374;2023-05-10T15:17:55;9.05;;;6.47;;